メルボルン の空港の天気 - METARとTAF

メルボルン空港 ( YMML / MEL ) - オーストラリア ビクトリア州、Melbourne Airport
飛行場実況気象(Metar)
観測時間08/14 06:30 AEST (08/13 20:30 UTC)
風向・風速西北西 6m/s
視程10km以上
天気現象
少しの雲 雲底高度 1370m
全天の8割程度の雲 雲底高度 5030m
気温8℃
湿度87%
気圧1007hPa
METARYMML 132030Z 29011KT 9999 FEW045 BKN165 08/06 Q1007
過去の天気等 Google飛行場航空写真 Wunderground天気予報

過去48時間のMETAR

飛行場予報(TAF)
発表時間: 8/14 06:29 AEST (8/13 20:29 UTC)
予報対象時間: 14日7時 AEST ~ 15日10時 AEST
風向・風速西 5m/s
視程10km以上
全天の8割程度の雲 雲底高度 610m
14日11時 AEST から
風向・風速西 8m/s 瞬間風速 13m/s
視程10km以上
天気現象弱いしゅう雨
全天の4割程度の雲 雲底高度 1070m
14日18時 AEST から
風向・風速西 6m/s
視程10km以上
天気現象運行に影響にある天気現象が終了
全天の8割程度の雲 雲底高度 910m
15日4時 AEST から
風向・風速西北西 5m/s
視程10km以上
全天の8割程度の雲 雲底高度 910m
TAF AMD YMML 132029Z 1321/1500 28010KT 9999 BKN020
FM140100 26015G25KT 9999 -SHRA SCT035
FM140800 26012KT 9999 NSW BKN030
FM141800 29010KT 9999 BKN030